createdAt,value
2023-04-25T00:02:43.653Z,21.80
2023-04-25T00:05:32.532Z,21.80
2023-04-25T00:08:18.294Z,21.80
2023-04-25T00:11:07.039Z,20.80
2023-04-25T00:13:52.611Z,20.50
2023-04-25T00:16:42.294Z,20.30
2023-04-25T00:19:31.137Z,19.60
2023-04-25T00:22:21.635Z,19.50
2023-04-25T00:25:07.897Z,19.40
2023-04-25T00:27:53.664Z,19.00
2023-04-25T00:30:42.220Z,18.90
2023-04-25T00:33:27.556Z,18.60
2023-04-25T00:36:12.934Z,18.60
2023-04-25T00:38:58.187Z,18.40
2023-04-25T00:41:44.463Z,18.20
2023-04-25T00:44:32.142Z,18.10
2023-04-25T00:47:18.220Z,18.30
2023-04-25T00:50:03.954Z,18.50
2023-04-25T00:52:52.091Z,18.50
2023-04-25T00:55:39.662Z,18.60
2023-04-25T00:58:28.078Z,18.80
2023-04-25T01:01:14.367Z,18.90
2023-04-25T01:04:02.766Z,18.70
2023-04-25T01:06:49.016Z,18.60
2023-04-25T01:09:34.903Z,18.70
2023-04-25T01:12:20.923Z,18.90
2023-04-25T01:15:06.722Z,18.40
2023-04-25T01:17:52.588Z,18.90
2023-04-25T01:20:39.525Z,18.80
2023-04-25T01:23:25.336Z,19.00
2023-04-25T01:26:12.438Z,18.70
2023-04-25T01:28:59.055Z,18.50
2023-04-25T01:31:45.547Z,18.50
2023-04-25T01:34:31.341Z,18.50
2023-04-25T01:37:18.667Z,18.20
2023-04-25T01:40:06.382Z,18.20
2023-04-25T01:42:52.751Z,18.20
2023-04-25T01:45:42.096Z,18.00
2023-04-25T01:48:27.843Z,18.00
2023-04-25T01:51:14.074Z,18.00
2023-04-25T01:54:00.867Z,17.70
2023-04-25T01:56:52.137Z,17.70
2023-04-25T01:59:39.015Z,17.90
2023-04-25T02:02:24.416Z,18.00
2023-04-25T02:05:12.518Z,18.10
2023-04-25T02:07:57.973Z,17.80
2023-04-25T02:10:43.762Z,17.70
2023-04-25T02:13:29.134Z,17.80
2023-04-25T02:16:15.805Z,17.90
2023-04-25T02:19:01.984Z,17.70
2023-04-25T02:21:47.446Z,17.60
2023-04-25T02:24:34.689Z,17.70
2023-04-25T02:27:19.945Z,17.70
2023-04-25T02:30:07.608Z,17.90
2023-04-25T02:32:53.193Z,18.20
2023-04-25T02:35:38.674Z,18.00
2023-04-25T02:38:24.229Z,18.20
2023-04-25T02:41:11.810Z,18.10
2023-04-25T02:43:57.000Z,18.30
2023-04-25T02:46:42.625Z,18.20
2023-04-25T02:49:28.963Z,18.10
2023-04-25T02:52:14.670Z,18.30
2023-04-25T02:55:04.092Z,18.20
2023-04-25T02:57:49.761Z,18.20
2023-04-25T03:00:35.317Z,18.10
2023-04-25T03:03:22.854Z,18.20
2023-04-25T03:06:08.511Z,18.20
2023-04-25T03:08:54.678Z,18.10
2023-04-25T03:11:40.674Z,18.10
2023-04-25T03:14:28.316Z,18.30
2023-04-25T03:17:13.653Z,18.20
2023-04-25T03:19:59.344Z,18.20
2023-04-25T03:22:47.368Z,18.30
2023-04-25T03:25:32.678Z,18.40
2023-04-25T03:28:18.203Z,18.60
2023-04-25T03:31:03.860Z,18.70
2023-04-25T03:33:49.957Z,18.40
2023-04-25T03:36:36.375Z,18.40
2023-04-25T03:39:22.121Z,18.30
2023-04-25T03:42:07.566Z,18.40
2023-04-25T03:44:55.537Z,18.60
2023-04-25T03:47:41.495Z,18.40
2023-04-25T03:50:27.341Z,18.40
2023-04-25T03:53:12.836Z,18.50
2023-04-25T03:55:58.545Z,18.40
2023-04-25T03:58:44.019Z,18.70
2023-04-25T04:01:29.751Z,18.40
2023-04-25T04:04:15.518Z,18.30
2023-04-25T04:07:01.351Z,18.30
2023-04-25T04:09:49.988Z,18.70
2023-04-25T04:12:36.042Z,18.90
2023-04-25T04:15:21.885Z,18.80
2023-04-25T04:18:07.700Z,18.70
2023-04-25T04:20:53.613Z,18.80
2023-04-25T04:23:41.850Z,18.80
2023-04-25T04:26:27.715Z,18.80
2023-04-25T04:29:13.708Z,18.80
2023-04-25T04:31:59.135Z,18.70
2023-04-25T04:34:49.753Z,18.70
2023-04-25T04:37:37.947Z,18.70
2023-04-25T04:40:23.233Z,18.30
2023-04-25T04:43:11.441Z,18.50
2023-04-25T04:45:57.869Z,18.50
2023-04-25T04:48:43.693Z,18.40
2023-04-25T04:51:29.133Z,17.90
2023-04-25T04:54:14.799Z,17.90
2023-04-25T04:57:00.530Z,17.90
2023-04-25T04:59:46.842Z,18.00
2023-04-25T05:02:32.129Z,17.80
2023-04-25T05:05:18.483Z,17.70
2023-04-25T05:08:04.437Z,17.70
2023-04-25T05:10:51.814Z,17.90
2023-04-25T05:13:39.263Z,17.70
2023-04-25T05:16:24.803Z,17.90
2023-04-25T05:19:12.962Z,17.80
2023-04-25T05:22:00.336Z,17.80
2023-04-25T05:24:49.242Z,17.80
2023-04-25T05:27:35.350Z,17.90
2023-04-25T05:30:21.716Z,17.80
2023-04-25T05:33:08.084Z,17.90
2023-04-25T05:35:55.963Z,17.60
2023-04-25T05:38:41.121Z,17.60
2023-04-25T05:41:26.320Z,17.10
2023-04-25T05:44:11.944Z,17.40
2023-04-25T05:46:57.590Z,17.50
2023-04-25T05:49:42.841Z,17.50
2023-04-25T05:52:28.442Z,17.30
2023-04-25T05:55:14.531Z,17.30
2023-04-25T05:58:01.980Z,17.30
2023-04-25T06:00:47.513Z,17.60
2023-04-25T06:03:33.064Z,17.90
2023-04-25T06:06:21.508Z,17.90
2023-04-25T06:09:07.200Z,17.90
2023-04-25T06:11:55.308Z,17.90
2023-04-25T06:14:42.188Z,18.10
2023-04-25T06:17:27.906Z,17.90
2023-04-25T06:20:13.341Z,18.90
2023-04-25T06:23:01.442Z,18.10
2023-04-25T06:25:47.280Z,18.00
2023-04-25T06:28:33.363Z,18.00
2023-04-25T06:31:21.171Z,18.00
2023-04-25T06:34:06.723Z,18.10
2023-04-25T06:36:52.370Z,18.10
2023-04-25T06:39:40.608Z,18.60
2023-04-25T06:42:26.513Z,18.00
2023-04-25T06:45:12.306Z,18.60
2023-04-25T06:47:57.771Z,18.80
2023-04-25T06:50:43.820Z,18.90
2023-04-25T06:53:29.121Z,18.70
2023-04-25T06:56:14.411Z,18.70
2023-04-25T06:59:01.743Z,18.80
2023-04-25T07:01:46.882Z,19.30
2023-04-25T07:04:33.258Z,19.70
2023-04-25T07:07:18.861Z,19.80
2023-04-25T07:10:04.477Z,19.30
2023-04-25T07:12:49.899Z,19.80
2023-04-25T07:15:35.724Z,19.80
2023-04-25T07:18:21.370Z,20.10
2023-04-25T07:21:07.561Z,20.20
2023-04-25T07:23:53.019Z,20.60
2023-04-25T07:26:38.679Z,21.50
2023-04-25T07:29:24.081Z,21.90
2023-04-25T07:32:13.443Z,21.80
2023-04-25T07:34:59.602Z,21.30
2023-04-25T07:37:47.555Z,21.30
2023-04-25T07:40:32.872Z,20.70
2023-04-25T07:43:18.353Z,19.30
2023-04-25T07:46:06.081Z,19.10
2023-04-25T07:48:51.995Z,18.70
2023-04-25T07:51:40.333Z,16.00
2023-04-25T07:54:26.435Z,16.30
2023-04-25T07:57:11.786Z,15.90
2023-04-25T07:59:57.174Z,14.80
2023-04-25T08:02:45.640Z,15.10
2023-04-25T08:05:33.781Z,15.60
2023-04-25T08:08:23.717Z,15.90
2023-04-25T08:11:09.082Z,16.10
2023-04-25T08:13:54.358Z,14.60
2023-04-25T08:16:40.869Z,13.20
2023-04-25T08:19:26.780Z,12.90
2023-04-25T08:22:13.775Z,12.00
2023-04-25T08:24:59.951Z,12.30
2023-04-25T08:27:45.553Z,11.40
2023-04-25T08:30:31.193Z,11.20
2023-04-25T08:33:16.791Z,11.50
2023-04-25T08:36:05.814Z,8.90
2023-04-25T08:38:53.826Z,9.00
2023-04-25T08:41:42.457Z,8.30
2023-04-25T08:44:33.820Z,6.80
2023-04-25T08:47:22.701Z,7.10
2023-04-25T08:50:08.728Z,6.90
2023-04-25T08:52:59.973Z,6.20
2023-04-25T08:55:49.934Z,5.90
2023-04-25T08:58:36.847Z,5.60
2023-04-25T09:01:22.308Z,5.50
2023-04-25T09:04:08.137Z,4.70
2023-04-25T09:06:53.888Z,3.80
2023-04-25T09:09:40.362Z,3.90
2023-04-25T09:12:29.959Z,5.40
2023-04-25T09:18:04.448Z,5.50
2023-04-25T09:23:53.737Z,3.30
2023-04-25T09:26:42.522Z,1.60
2023-04-25T09:29:35.834Z,1.30
2023-04-25T09:32:25.927Z,1.20
2023-04-25T09:35:24.103Z,1.00
2023-04-25T09:38:20.120Z,1.00
2023-04-25T09:41:06.184Z,1.00
2023-04-25T09:43:51.799Z,1.00
2023-04-25T09:46:39.882Z,1.00
2023-04-25T09:49:26.904Z,1.00
2023-04-25T09:52:18.358Z,1.00
2023-04-25T09:55:07.106Z,1.00
2023-04-25T09:57:53.793Z,1.00
2023-04-25T10:00:42.355Z,1.00
2023-04-25T10:03:30.579Z,1.00
2023-04-25T10:06:24.113Z,1.00
2023-04-25T10:09:10.213Z,1.00
2023-04-25T10:11:57.690Z,1.00
2023-04-25T10:14:43.889Z,1.00
2023-04-25T10:17:29.463Z,1.00
2023-04-25T10:20:15.439Z,1.00
2023-04-25T10:23:12.328Z,1.00
2023-04-25T10:25:58.647Z,1.00
2023-04-25T10:29:02.046Z,1.00
2023-04-25T10:31:48.431Z,1.00
2023-04-25T10:34:47.603Z,1.00
2023-04-25T10:37:33.009Z,1.00
2023-04-25T10:40:25.832Z,1.00
2023-04-25T10:43:40.885Z,1.00
2023-04-25T10:46:28.743Z,1.00
2023-04-25T10:49:43.964Z,1.00
2023-04-25T10:52:30.698Z,1.00
2023-04-25T10:55:16.166Z,1.00
2023-04-25T10:58:02.070Z,1.00
2023-04-25T11:03:44.293Z,1.00
2023-04-25T11:07:04.509Z,1.00
2023-04-25T11:09:52.850Z,1.00
2023-04-25T11:12:38.270Z,1.00
2023-04-25T11:15:24.719Z,1.00
2023-04-25T11:18:12.509Z,1.00
2023-04-25T11:20:58.203Z,1.00
2023-04-25T11:23:47.107Z,1.00
2023-04-25T11:26:32.879Z,1.00
2023-04-25T11:29:23.173Z,1.00
2023-04-25T11:32:09.105Z,1.00
2023-04-25T11:34:54.748Z,1.00
2023-04-25T11:37:43.735Z,1.00
2023-04-25T11:40:32.219Z,1.00
2023-04-25T11:43:21.590Z,1.00
2023-04-25T11:46:10.899Z,1.00
2023-04-25T11:48:58.949Z,1.00
2023-04-25T11:51:48.887Z,1.00
2023-04-25T11:54:37.837Z,1.00
2023-04-25T11:57:23.663Z,1.00
2023-04-25T12:00:22.520Z,1.00
2023-04-25T12:03:13.216Z,1.00
2023-04-25T12:06:06.647Z,1.00
2023-04-25T12:09:04.347Z,1.00
2023-04-25T12:11:54.975Z,1.00
2023-04-25T12:14:42.398Z,1.00
2023-04-25T12:17:29.568Z,1.00
2023-04-25T12:20:20.714Z,1.00
2023-04-25T12:23:09.188Z,1.00
2023-04-25T12:25:54.577Z,1.00
2023-04-25T12:28:40.193Z,1.00
2023-04-25T12:31:25.455Z,1.00
2023-04-25T12:34:10.992Z,1.00
2023-04-25T12:36:57.610Z,1.00
2023-04-25T12:39:43.195Z,1.00
2023-04-25T12:42:30.679Z,1.00
2023-04-25T12:45:16.148Z,1.00
2023-04-25T12:48:04.301Z,1.00
2023-04-25T12:50:51.642Z,1.00
2023-04-25T12:53:38.598Z,1.00
2023-04-25T12:56:25.619Z,1.00
2023-04-25T12:59:13.536Z,1.00
2023-04-25T13:01:59.478Z,1.00
2023-04-25T13:04:47.683Z,1.00
2023-04-25T13:07:35.362Z,1.00
2023-04-25T13:10:21.264Z,1.00
2023-04-25T13:13:06.598Z,1.00
2023-04-25T13:15:54.484Z,1.00
2023-04-25T13:18:41.776Z,1.00
2023-04-25T13:21:27.975Z,1.00
2023-04-25T13:24:13.635Z,1.00
2023-04-25T13:26:59.049Z,1.00
2023-04-25T13:29:44.513Z,1.00
2023-04-25T13:32:30.122Z,1.00
2023-04-25T13:35:16.203Z,1.00
2023-04-25T13:38:02.114Z,1.00
2023-04-25T13:40:47.262Z,1.00
2023-04-25T13:43:36.474Z,1.00
2023-04-25T13:46:40.846Z,1.00
2023-04-25T13:49:28.531Z,1.00
2023-04-25T13:52:14.112Z,1.00
2023-04-25T13:55:00.503Z,1.00
2023-04-25T13:57:48.613Z,1.00
2023-04-25T14:00:34.625Z,1.00
2023-04-25T14:03:19.964Z,1.00
2023-04-25T14:06:08.798Z,1.00
2023-04-25T14:08:54.986Z,1.00
2023-04-25T14:11:40.571Z,1.00
2023-04-25T14:14:26.307Z,1.00
2023-04-25T14:17:12.241Z,1.00
2023-04-25T14:19:57.801Z,1.00
2023-04-25T14:22:47.638Z,1.00
2023-04-25T14:25:32.798Z,1.00
2023-04-25T14:28:18.231Z,1.00
2023-04-25T14:31:03.772Z,1.00
2023-04-25T14:33:50.646Z,1.00
2023-04-25T14:36:37.764Z,1.00
2023-04-25T14:39:23.413Z,1.00
2023-04-25T14:42:08.666Z,1.00
2023-04-25T14:44:53.938Z,1.00
2023-04-25T14:47:39.446Z,1.00
2023-04-25T14:50:25.182Z,1.00
2023-04-25T14:53:10.743Z,1.00
2023-04-25T14:55:58.868Z,1.00
2023-04-25T14:58:47.186Z,1.00
2023-04-25T15:01:32.958Z,1.00
2023-04-25T15:04:21.547Z,1.00
2023-04-25T15:07:07.196Z,1.00
2023-04-25T15:09:54.281Z,1.00
2023-04-25T15:12:40.353Z,1.00
2023-04-25T15:15:27.962Z,1.00
2023-04-25T15:18:13.878Z,1.00
2023-04-25T15:20:59.518Z,1.00
2023-04-25T15:23:45.362Z,1.00
2023-04-25T15:26:31.261Z,1.00
2023-04-25T15:29:16.596Z,1.00
2023-04-25T15:32:02.068Z,1.00
2023-04-25T15:34:47.962Z,1.00
2023-04-25T15:37:37.500Z,1.00
2023-04-25T15:40:26.388Z,1.00
2023-04-25T15:43:16.069Z,1.00
2023-04-25T15:46:04.764Z,1.00
2023-04-25T15:48:50.478Z,1.00
2023-04-25T15:51:36.080Z,1.00
2023-04-25T15:54:23.917Z,1.00
2023-04-25T15:57:13.083Z,1.00
2023-04-25T16:00:04.983Z,1.00
2023-04-25T16:02:51.023Z,1.00
2023-04-25T16:05:37.522Z,1.00
2023-04-25T16:08:23.278Z,1.00
2023-04-25T16:11:09.849Z,1.00
2023-04-25T16:13:58.752Z,1.00
2023-04-25T16:16:45.007Z,1.00
2023-04-25T16:19:30.468Z,1.00
2023-04-25T16:22:21.066Z,1.00
2023-04-25T16:25:08.362Z,1.00
2023-04-25T16:27:53.781Z,1.00
2023-04-25T16:30:39.747Z,1.00
2023-04-25T16:33:27.995Z,1.00
2023-04-25T16:36:13.590Z,1.00
2023-04-25T16:39:01.066Z,1.00
2023-04-25T16:41:47.453Z,1.00
2023-04-25T16:44:33.130Z,1.00
2023-04-25T16:47:20.355Z,1.00
2023-04-25T16:50:07.557Z,1.00
2023-04-25T16:52:55.550Z,1.00
2023-04-25T16:55:41.695Z,1.00
2023-04-25T16:58:28.391Z,1.00
2023-04-25T17:01:16.931Z,1.00
2023-04-25T17:04:03.533Z,1.00
2023-04-25T17:06:49.389Z,1.00
2023-04-25T17:09:35.184Z,1.00
2023-04-25T17:12:21.788Z,1.00
2023-04-25T17:15:08.414Z,1.00
2023-04-25T17:17:53.830Z,1.00
2023-04-25T17:20:39.822Z,1.00
2023-04-25T17:23:25.160Z,1.00
2023-04-25T17:26:11.005Z,1.00
2023-04-25T17:28:57.695Z,1.00
2023-04-25T17:31:45.168Z,1.00
2023-04-25T17:34:33.034Z,1.00
2023-04-25T17:37:18.950Z,1.00
2023-04-25T17:40:05.048Z,1.00
2023-04-25T17:42:51.050Z,1.00
2023-04-25T17:45:37.203Z,1.00
2023-04-25T17:48:25.994Z,1.00
2023-04-25T17:51:13.654Z,1.00
2023-04-25T17:53:59.270Z,1.00
2023-04-25T17:56:44.970Z,1.00
2023-04-25T17:59:33.798Z,1.00
2023-04-25T18:02:19.402Z,1.00
2023-04-25T18:05:09.708Z,1.00
2023-04-25T18:07:55.819Z,1.00
2023-04-25T18:10:44.764Z,1.10
2023-04-25T18:13:30.340Z,1.50
2023-04-25T18:16:16.000Z,1.60
2023-04-25T18:19:05.401Z,1.60
2023-04-25T18:21:54.441Z,1.70
2023-04-25T18:24:40.314Z,1.80
2023-04-25T18:27:28.857Z,1.90
2023-04-25T18:30:14.629Z,1.90
2023-04-25T18:33:00.382Z,3.10
2023-04-25T18:35:57.527Z,3.10
2023-04-25T18:38:44.795Z,3.40
2023-04-25T18:41:52.259Z,4.50
2023-04-25T18:44:40.236Z,5.70
2023-04-25T18:47:25.997Z,6.80
2023-04-25T18:50:12.984Z,7.50
2023-04-25T18:52:58.487Z,7.70
2023-04-25T18:55:46.248Z,7.70
2023-04-25T18:58:32.569Z,8.20
2023-04-25T19:01:18.564Z,8.10
2023-04-25T19:04:07.045Z,7.80
2023-04-25T19:06:55.871Z,6.50
2023-04-25T19:09:41.234Z,4.70
2023-04-25T19:12:26.859Z,4.70
2023-04-25T19:15:12.667Z,3.70
2023-04-25T19:17:59.273Z,3.50
2023-04-25T19:20:45.891Z,3.10
2023-04-25T19:23:32.241Z,3.30
2023-04-25T19:26:18.656Z,3.20
2023-04-25T19:29:07.133Z,3.20
2023-04-25T19:31:54.011Z,3.10
2023-04-25T19:34:40.664Z,3.10
2023-04-25T19:37:26.349Z,3.00
2023-04-25T19:40:16.091Z,3.00
2023-04-25T19:43:01.941Z,3.00
2023-04-25T19:45:47.349Z,3.20
2023-04-25T19:48:32.553Z,2.90
2023-04-25T19:51:18.735Z,3.00
2023-04-25T19:54:04.312Z,3.20
2023-04-25T19:56:51.954Z,3.20
2023-04-25T19:59:40.208Z,3.60
2023-04-25T20:02:26.539Z,3.80
2023-04-25T20:05:17.129Z,4.10
2023-04-25T20:08:04.970Z,4.60
2023-04-25T20:10:50.359Z,5.10
2023-04-25T20:13:38.194Z,5.30
2023-04-25T20:16:23.699Z,5.70
2023-04-25T20:19:09.175Z,5.80
2023-04-25T20:21:56.933Z,6.20
2023-04-25T20:24:42.504Z,6.90
2023-04-25T20:27:27.719Z,7.20
2023-04-25T20:30:14.076Z,7.30
2023-04-25T20:33:01.432Z,7.30
2023-04-25T20:35:46.836Z,7.80
2023-04-25T20:38:34.730Z,8.30
2023-04-25T20:41:23.161Z,8.50
2023-04-25T20:44:09.428Z,8.80
2023-04-25T20:46:55.210Z,8.80
2023-04-25T20:49:43.381Z,8.80
2023-04-25T20:52:28.633Z,9.00
2023-04-25T20:55:13.872Z,9.30
2023-04-25T20:57:59.786Z,9.50
2023-04-25T21:00:47.413Z,9.20
2023-04-25T21:03:34.102Z,9.20
2023-04-25T21:06:20.033Z,9.00
2023-04-25T21:09:08.894Z,9.30
2023-04-25T21:11:54.584Z,9.20
2023-04-25T21:14:39.920Z,8.60
2023-04-25T21:17:25.269Z,8.90
2023-04-25T21:20:11.065Z,7.30
2023-04-25T21:22:56.291Z,7.50
2023-04-25T21:25:43.044Z,7.80
2023-04-25T21:28:28.992Z,7.70
2023-04-25T21:31:15.201Z,7.60
2023-04-25T21:34:01.145Z,7.80
2023-04-25T21:36:46.629Z,7.70
2023-04-25T21:39:34.447Z,8.00
2023-04-25T21:42:20.709Z,8.60
2023-04-25T21:45:07.550Z,8.30
2023-04-25T21:47:52.793Z,8.40
2023-04-25T21:50:41.267Z,8.40
2023-04-25T21:53:26.925Z,8.50
2023-04-25T21:56:14.737Z,8.70
2023-04-25T21:59:01.072Z,8.40
2023-04-25T22:01:48.943Z,9.00
2023-04-25T22:04:34.995Z,9.50
2023-04-25T22:07:20.742Z,9.20
2023-04-25T22:10:07.149Z,9.30
2023-04-25T22:12:52.887Z,9.30
2023-04-25T22:15:38.436Z,9.40
2023-04-25T22:18:23.617Z,9.50
2023-04-25T22:21:10.226Z,9.70
2023-04-25T22:23:56.729Z,9.90
2023-04-25T22:26:43.354Z,10.40
2023-04-25T22:29:29.221Z,10.40
2023-04-25T22:32:14.836Z,10.80
2023-04-25T22:35:00.383Z,10.50
2023-04-25T22:37:46.228Z,10.80
2023-04-25T22:40:31.819Z,11.00
2023-04-25T22:43:17.774Z,11.10
2023-04-25T22:46:03.416Z,11.20
2023-04-25T22:48:48.959Z,11.60
2023-04-25T22:51:39.581Z,11.50
2023-04-25T22:54:25.162Z,11.50
2023-04-25T22:57:10.666Z,12.10
2023-04-25T22:59:56.773Z,12.50
2023-04-25T23:02:45.384Z,12.70
2023-04-25T23:05:32.729Z,12.40
2023-04-25T23:08:18.688Z,12.70
2023-04-25T23:11:08.350Z,12.70
2023-04-25T23:13:53.682Z,12.70
2023-04-25T23:16:40.889Z,13.10
2023-04-25T23:19:26.716Z,13.60
2023-04-25T23:22:12.568Z,13.80
2023-04-25T23:25:01.001Z,13.70
2023-04-25T23:27:47.532Z,14.50
2023-04-25T23:30:32.876Z,14.10
2023-04-25T23:33:18.943Z,14.50
2023-04-25T23:36:05.204Z,14.80
2023-04-25T23:38:50.818Z,14.60
2023-04-25T23:41:36.599Z,14.80
2023-04-25T23:44:22.638Z,14.90
2023-04-25T23:47:08.093Z,15.10
2023-04-25T23:49:53.475Z,15.10
2023-04-25T23:52:39.531Z,15.60
2023-04-25T23:55:26.064Z,15.10
2023-04-25T23:58:11.327Z,15.40
